sensor_id;sensor_type;location;lat;lon;timestamp;pressure;altitude;pressure_sealevel;temperature;humidity
32330;BME280;18807;52.434;13.238;2023-05-24T00:02:11;76608.47;;;-142.05;78.01
32330;BME280;18807;52.434;13.238;2023-05-24T00:09:46;76610.50;;;-142.05;77.93
32330;BME280;18807;52.434;13.238;2023-05-24T00:17:21;76635.00;;;-142.05;79.95
32330;BME280;18807;52.434;13.238;2023-05-24T00:24:56;76628.88;;;-142.05;80.95
32330;BME280;18807;52.434;13.238;2023-05-24T00:32:31;76622.75;;;-142.05;81.20
32330;BME280;18807;52.434;13.238;2023-05-24T00:40:06;76624.81;;;-142.05;80.42
32330;BME280;18807;52.434;13.238;2023-05-24T00:47:42;76626.84;;;-142.05;80.99
32330;BME280;18807;52.434;13.238;2023-05-24T00:55:17;76616.63;;;-142.05;80.66
32330;BME280;18807;52.434;13.238;2023-05-24T01:02:52;76628.88;;;-142.05;78.38
32330;BME280;18807;52.434;13.238;2023-05-24T01:10:31;76628.88;;;-142.05;78.21
32330;BME280;18807;52.434;13.238;2023-05-24T01:18:12;76628.88;;;-142.05;78.25
32330;BME280;18807;52.434;13.238;2023-05-24T01:25:59;76626.84;;;-142.05;78.25
32330;BME280;18807;52.434;13.238;2023-05-24T01:33:40;76630.94;;;-142.05;78.00
32330;BME280;18807;52.434;13.238;2023-05-24T01:41:26;76632.97;;;-142.05;77.59
32330;BME280;18807;52.434;13.238;2023-05-24T01:49:10;76628.88;;;-142.05;78.06
32330;BME280;18807;52.434;13.238;2023-05-24T01:56:47;76641.13;;;-142.05;77.75
32330;BME280;18807;52.434;13.238;2023-05-24T02:04:23;76635.00;;;-142.05;77.85
32330;BME280;18807;52.434;13.238;2023-05-24T02:11:57;76647.25;;;-142.05;76.05
32330;BME280;18807;52.434;13.238;2023-05-24T02:19:32;76632.97;;;-142.05;76.55
32330;BME280;18807;52.434;13.238;2023-05-24T02:27:08;76641.13;;;-142.05;75.85
32330;BME280;18807;52.434;13.238;2023-05-24T02:34:43;76647.25;;;-142.05;76.01
32330;BME280;18807;52.434;13.238;2023-05-24T02:42:17;76661.53;;;-142.05;75.37
32330;BME280;18807;52.434;13.238;2023-05-24T02:49:52;76647.25;;;-142.05;75.80
32330;BME280;18807;52.434;13.238;2023-05-24T02:57:26;76639.09;;;-142.05;75.42
32330;BME280;18807;52.434;13.238;2023-05-24T03:05:02;76643.19;;;-142.05;75.43
32330;BME280;18807;52.434;13.238;2023-05-24T03:12:35;76653.38;;;-142.05;75.59
32330;BME280;18807;52.434;13.238;2023-05-24T03:28:44;76659.50;;;-142.05;74.17
32330;BME280;18807;52.434;13.238;2023-05-24T03:36:18;76673.78;;;-142.05;73.42
32330;BME280;18807;52.434;13.238;2023-05-24T03:43:54;76671.75;;;-142.05;73.29
32330;BME280;18807;52.434;13.238;2023-05-24T03:51:28;76675.84;;;-142.05;72.47
32330;BME280;18807;52.434;13.238;2023-05-24T03:59:03;76684.00;;;-142.05;71.52
32330;BME280;18807;52.434;13.238;2023-05-24T04:06:37;76681.97;;;-142.05;71.04
32330;BME280;18807;52.434;13.238;2023-05-24T04:14:14;76694.22;;;-142.05;70.66
32330;BME280;18807;52.434;13.238;2023-05-24T04:21:48;76698.28;;;-142.05;70.55
32330;BME280;18807;52.434;13.238;2023-05-24T04:29:24;76694.22;;;-142.05;70.17
32330;BME280;18807;52.434;13.238;2023-05-24T04:36:58;76686.03;;;-142.05;69.78
32330;BME280;18807;52.434;13.238;2023-05-24T04:44:33;76690.13;;;-142.05;69.20
32330;BME280;18807;52.434;13.238;2023-05-24T04:52:07;76710.53;;;-142.05;68.22
32330;BME280;18807;52.434;13.238;2023-05-24T04:59:43;76720.75;;;-142.05;68.07
32330;BME280;18807;52.434;13.238;2023-05-24T05:07:17;76720.75;;;-142.05;67.98
32330;BME280;18807;52.434;13.238;2023-05-24T05:14:52;76728.91;;;-142.05;67.04
32330;BME280;18807;52.434;13.238;2023-05-24T05:22:26;76728.91;;;-142.05;67.83
32330;BME280;18807;52.434;13.238;2023-05-24T05:30:05;76726.88;;;-142.05;68.56
32330;BME280;18807;52.434;13.238;2023-05-24T05:37:39;76743.19;;;-142.05;68.21
32330;BME280;18807;52.434;13.238;2023-05-24T05:45:15;76741.16;;;-142.05;69.16
32330;BME280;18807;52.434;13.238;2023-05-24T05:52:49;76749.31;;;-142.05;69.63
32330;BME280;18807;52.434;13.238;2023-05-24T06:00:24;76741.16;;;-142.05;70.53
32330;BME280;18807;52.434;13.238;2023-05-24T06:07:58;76733.00;;;-142.05;71.08
32330;BME280;18807;52.434;13.238;2023-05-24T06:15:34;76745.25;;;-142.05;70.63
32330;BME280;18807;52.434;13.238;2023-05-24T06:23:08;76730.94;;;-142.05;71.25
32330;BME280;18807;52.434;13.238;2023-05-24T06:30:45;76724.81;;;-142.05;71.74
32330;BME280;18807;52.434;13.238;2023-05-24T06:38:19;76718.69;;;-142.05;71.82
32330;BME280;18807;52.434;13.238;2023-05-24T06:45:55;76722.78;;;-142.05;71.56
32330;BME280;18807;52.434;13.238;2023-05-24T06:53:29;76714.63;;;-142.05;72.80
32330;BME280;18807;52.434;13.238;2023-05-24T07:01:22;76700.31;;;-142.05;71.94
32330;BME280;18807;52.434;13.238;2023-05-24T07:08:56;76694.22;;;-142.05;71.84
32330;BME280;18807;52.434;13.238;2023-05-24T07:16:31;76708.50;;;-142.05;71.59
32330;BME280;18807;52.434;13.238;2023-05-24T07:24:05;76708.50;;;-142.05;70.32
32330;BME280;18807;52.434;13.238;2023-05-24T07:31:41;76698.28;;;-142.05;71.20
32330;BME280;18807;52.434;13.238;2023-05-24T07:39:15;76681.97;;;-142.05;71.43
32330;BME280;18807;52.434;13.238;2023-05-24T07:46:51;76694.22;;;-142.05;72.24
32330;BME280;18807;52.434;13.238;2023-05-24T07:54:26;76677.88;;;-142.05;71.70
32330;BME280;18807;52.434;13.238;2023-05-24T08:02:01;76692.16;;;-142.05;72.61
32330;BME280;18807;52.434;13.238;2023-05-24T08:09:37;76694.22;;;-142.05;71.39
32330;BME280;18807;52.434;13.238;2023-05-24T08:17:13;76690.13;;;-142.05;71.36
32330;BME280;18807;52.434;13.238;2023-05-24T08:24:46;76681.97;;;-142.05;71.42
32330;BME280;18807;52.434;13.238;2023-05-24T08:32:22;76673.78;;;-142.05;70.63
32330;BME280;18807;52.434;13.238;2023-05-24T08:39:56;76671.75;;;-142.05;69.95
32330;BME280;18807;52.434;13.238;2023-05-24T08:47:32;76673.78;;;-142.05;70.10
32330;BME280;18807;52.434;13.238;2023-05-24T08:55:07;76663.59;;;-142.05;70.58
32330;BME280;18807;52.434;13.238;2023-05-24T09:02:44;76653.38;;;-142.05;69.76
32330;BME280;18807;52.434;13.238;2023-05-24T09:10:19;76657.47;;;-142.05;68.74
32330;BME280;18807;52.434;13.238;2023-05-24T09:17:56;76657.47;;;-142.05;68.60
32330;BME280;18807;52.434;13.238;2023-05-24T09:25:30;76624.81;;;-142.05;69.03
32330;BME280;18807;52.434;13.238;2023-05-24T09:33:06;76588.06;;;-142.05;68.28
32330;BME280;18807;52.434;13.238;2023-05-24T09:40:42;76596.22;;;-142.05;64.37
32330;BME280;18807;52.434;13.238;2023-05-24T09:48:19;76588.06;;;-142.05;64.96
32330;BME280;18807;52.434;13.238;2023-05-24T09:55:53;76600.31;;;-142.05;64.74
32330;BME280;18807;52.434;13.238;2023-05-24T10:03:29;76592.13;;;-142.05;63.67
32330;BME280;18807;52.434;13.238;2023-05-24T10:11:04;76600.31;;;-142.05;61.55
32330;BME280;18807;52.434;13.238;2023-05-24T10:18:39;76592.13;;;-142.05;63.12
32330;BME280;18807;52.434;13.238;2023-05-24T10:26:13;76577.84;;;-142.05;63.76
32330;BME280;18807;52.434;13.238;2023-05-24T10:33:49;76577.84;;;-142.05;63.92
32330;BME280;18807;52.434;13.238;2023-05-24T10:41:37;76569.69;;;-142.05;63.28
32330;BME280;18807;52.434;13.238;2023-05-24T10:49:13;76559.47;;;-142.05;61.27
32330;BME280;18807;52.434;13.238;2023-05-24T10:56:49;76547.25;;;-142.05;60.86
32330;BME280;18807;52.434;13.238;2023-05-24T11:04:25;76500.28;;;-142.05;61.27
32330;BME280;18807;52.434;13.238;2023-05-24T11:12:01;76449.25;;;-142.05;58.11
32330;BME280;18807;52.434;13.238;2023-05-24T11:19:46;76424.75;;;-142.05;55.14
32330;BME280;18807;52.434;13.238;2023-05-24T11:27:21;76420.69;;;-142.05;53.22
32330;BME280;18807;52.434;13.238;2023-05-24T11:34:56;76451.31;;;-142.05;53.12
32330;BME280;18807;52.434;13.238;2023-05-24T11:42:29;76445.19;;;-142.05;54.11
32330;BME280;18807;52.434;13.238;2023-05-24T11:50:06;76412.53;;;-142.05;55.13
32330;BME280;18807;52.434;13.238;2023-05-24T11:57:41;76402.31;;;-142.05;54.90
32330;BME280;18807;52.434;13.238;2023-05-24T12:05:22;76383.94;;;-142.05;53.36
32330;BME280;18807;52.434;13.238;2023-05-24T12:12:56;76371.69;;;-142.05;52.40
32330;BME280;18807;52.434;13.238;2023-05-24T12:20:32;76373.75;;;-142.05;52.50
32330;BME280;18807;52.434;13.238;2023-05-24T12:28:05;76357.41;;;-142.05;53.04
32330;BME280;18807;52.434;13.238;2023-05-24T12:35:41;76347.19;;;-142.05;53.58
32330;BME280;18807;52.434;13.238;2023-05-24T12:43:15;76339.03;;;-142.05;52.38
32330;BME280;18807;52.434;13.238;2023-05-24T12:50:51;76314.53;;;-142.05;51.96
32330;BME280;18807;52.434;13.238;2023-05-24T12:58:25;76302.31;;;-142.05;52.21
32330;BME280;18807;52.434;13.238;2023-05-24T13:06:00;76288.00;;;-142.05;51.28
32330;BME280;18807;52.434;13.238;2023-05-24T13:13:34;76308.41;;;-142.05;51.11
32330;BME280;18807;52.434;13.238;2023-05-24T13:21:09;76283.94;;;-142.05;51.44
32330;BME280;18807;52.434;13.238;2023-05-24T13:28:44;76298.22;;;-142.05;51.80
32330;BME280;18807;52.434;13.238;2023-05-24T13:36:39;76275.75;;;-142.05;51.92
32330;BME280;18807;52.434;13.238;2023-05-24T13:44:14;76308.41;;;-142.05;51.94
32330;BME280;18807;52.434;13.238;2023-05-24T13:51:51;76314.53;;;-142.05;53.34
32330;BME280;18807;52.434;13.238;2023-05-24T13:59:29;76312.50;;;-142.05;53.33
32330;BME280;18807;52.434;13.238;2023-05-24T14:07:05;76300.25;;;-142.05;53.62
32330;BME280;18807;52.434;13.238;2023-05-24T14:14:40;76261.47;;;-142.05;52.36
32330;BME280;18807;52.434;13.238;2023-05-24T14:22:33;76214.53;;;-142.05;51.60
32330;BME280;18807;52.434;13.238;2023-05-24T14:30:08;76171.69;;;-142.05;51.11
32330;BME280;18807;52.434;13.238;2023-05-24T14:37:43;76128.81;;;-142.05;48.58
32330;BME280;18807;52.434;13.238;2023-05-24T14:45:18;76049.22;;;-142.05;50.46
32330;BME280;18807;52.434;13.238;2023-05-24T14:52:54;75979.81;;;-142.05;47.18
32330;BME280;18807;52.434;13.238;2023-05-24T15:00:45;75957.38;;;-142.05;46.61
32330;BME280;18807;52.434;13.238;2023-05-24T15:08:21;75930.84;;;-142.05;45.57
32330;BME280;18807;52.434;13.238;2023-05-24T15:15:56;75898.19;;;-142.05;44.61
32330;BME280;18807;52.434;13.238;2023-05-24T15:23:33;75883.91;;;-142.05;43.27
32330;BME280;18807;52.434;13.238;2023-05-24T15:31:08;75851.25;;;-142.05;43.62
32330;BME280;18807;52.434;13.238;2023-05-24T15:38:44;75836.97;;;-142.05;43.25
32330;BME280;18807;52.434;13.238;2023-05-24T15:46:19;75820.63;;;-142.05;42.88
32330;BME280;18807;52.434;13.238;2023-05-24T15:53:55;75802.28;;;-142.05;43.38
32330;BME280;18807;52.434;13.238;2023-05-24T16:01:29;75804.31;;;-142.05;43.18
32330;BME280;18807;52.434;13.238;2023-05-24T16:09:04;75779.81;;;-142.05;42.14
32330;BME280;18807;52.434;13.238;2023-05-24T16:16:38;75781.88;;;-142.05;41.01
32330;BME280;18807;52.434;13.238;2023-05-24T16:24:14;75783.91;;;-142.05;41.49
32330;BME280;18807;52.434;13.238;2023-05-24T16:31:48;75773.72;;;-142.05;40.90
32330;BME280;18807;52.434;13.238;2023-05-24T16:39:24;75808.41;;;-142.05;41.94
32330;BME280;18807;52.434;13.238;2023-05-24T16:46:57;75867.56;;;-142.05;43.58
32330;BME280;18807;52.434;13.238;2023-05-24T16:54:32;75926.75;;;-142.05;43.60
32330;BME280;18807;52.434;13.238;2023-05-24T17:02:06;75971.66;;;-142.05;44.34
32330;BME280;18807;52.434;13.238;2023-05-24T17:09:41;75983.91;;;-142.05;44.88
32330;BME280;18807;52.434;13.238;2023-05-24T17:17:16;75975.75;;;-142.05;44.82
32330;BME280;18807;52.434;13.238;2023-05-24T17:24:51;75977.78;;;-142.05;45.21
32330;BME280;18807;52.434;13.238;2023-05-24T17:32:25;75992.06;;;-142.05;45.03
32330;BME280;18807;52.434;13.238;2023-05-24T17:40:01;76039.00;;;-142.05;45.82
32330;BME280;18807;52.434;13.238;2023-05-24T17:47:34;76075.75;;;-142.05;46.78
32330;BME280;18807;52.434;13.238;2023-05-24T17:55:10;76114.53;;;-142.05;47.50
32330;BME280;18807;52.434;13.238;2023-05-24T18:02:44;76128.81;;;-142.05;48.09
32330;BME280;18807;52.434;13.238;2023-05-24T18:10:19;76132.91;;;-142.05;48.65
32330;BME280;18807;52.434;13.238;2023-05-24T18:17:54;76155.34;;;-142.05;48.89
32330;BME280;18807;52.434;13.238;2023-05-24T18:25:29;76167.59;;;-142.05;49.61
32330;BME280;18807;52.434;13.238;2023-05-24T18:33:03;76206.38;;;-142.05;49.80
32330;BME280;18807;52.434;13.238;2023-05-24T18:40:41;76224.75;;;-142.05;50.20
32330;BME280;18807;52.434;13.238;2023-05-24T18:48:15;76234.94;;;-142.05;51.45
32330;BME280;18807;52.434;13.238;2023-05-24T19:04:41;76292.09;;;-142.05;54.08
32330;BME280;18807;52.434;13.238;2023-05-24T19:12:19;76318.63;;;-142.05;55.63
32330;BME280;18807;52.434;13.238;2023-05-24T19:19:55;76351.28;;;-142.05;56.55
32330;BME280;18807;52.434;13.238;2023-05-24T19:27:29;76394.16;;;-142.05;57.51
32330;BME280;18807;52.434;13.238;2023-05-24T19:35:06;76439.06;;;-142.05;58.45
32330;BME280;18807;52.434;13.238;2023-05-24T19:51:02;76490.09;;;-142.05;60.88
32330;BME280;18807;52.434;13.238;2023-05-24T19:58:36;76524.78;;;-142.05;62.39
32330;BME280;18807;52.434;13.238;2023-05-24T20:06:12;76551.31;;;-142.05;63.11
32330;BME280;18807;52.434;13.238;2023-05-24T20:13:46;76575.81;;;-142.05;64.13
32330;BME280;18807;52.434;13.238;2023-05-24T20:29:35;76635.00;;;-142.05;66.14
32330;BME280;18807;52.434;13.238;2023-05-24T20:37:09;76653.38;;;-142.05;66.89
32330;BME280;18807;52.434;13.238;2023-05-24T20:44:44;76677.88;;;-142.05;67.93
32330;BME280;18807;52.434;13.238;2023-05-24T20:52:18;76700.31;;;-142.05;69.22
32330;BME280;18807;52.434;13.238;2023-05-24T20:59:53;76724.81;;;-142.05;70.15
32330;BME280;18807;52.434;13.238;2023-05-24T21:07:27;76759.53;;;-142.05;71.41
32330;BME280;18807;52.434;13.238;2023-05-24T21:15:02;76784.03;;;-142.05;72.19
32330;BME280;18807;52.434;13.238;2023-05-24T21:22:36;76818.72;;;-142.05;73.57
32330;BME280;18807;52.434;13.238;2023-05-24T21:30:13;76833.00;;;-142.05;74.14
32330;BME280;18807;52.434;13.238;2023-05-24T21:37:47;76857.50;;;-142.05;75.32
32330;BME280;18807;52.434;13.238;2023-05-24T21:45:22;76875.88;;;-142.05;76.51
32330;BME280;18807;52.434;13.238;2023-05-24T21:52:56;76894.25;;;-142.05;76.81
32330;BME280;18807;52.434;13.238;2023-05-24T22:08:55;76924.88;;;-142.05;78.92
32330;BME280;18807;52.434;13.238;2023-05-24T22:16:33;76951.41;;;-142.05;79.93
32330;BME280;18807;52.434;13.238;2023-05-24T22:24:09;76961.63;;;-142.05;80.09
32330;BME280;18807;52.434;13.238;2023-05-24T22:31:43;76982.03;;;-142.05;80.79
32330;BME280;18807;52.434;13.238;2023-05-24T22:39:18;76992.25;;;-142.05;81.48
32330;BME280;18807;52.434;13.238;2023-05-24T22:46:52;77004.50;;;-142.05;82.54
32330;BME280;18807;52.434;13.238;2023-05-24T22:54:29;77020.84;;;-142.05;83.72
32330;BME280;18807;52.434;13.238;2023-05-24T23:02:03;77026.97;;;-142.05;84.73
32330;BME280;18807;52.434;13.238;2023-05-24T23:09:38;77037.16;;;-142.05;85.12
32330;BME280;18807;52.434;13.238;2023-05-24T23:17:13;77045.31;;;-142.05;85.94
32330;BME280;18807;52.434;13.238;2023-05-24T23:24:48;77055.53;;;-142.05;86.78
32330;BME280;18807;52.434;13.238;2023-05-24T23:32:22;77071.88;;;-142.05;87.85
32330;BME280;18807;52.434;13.238;2023-05-24T23:40:15;77075.94;;;-142.05;89.84
32330;BME280;18807;52.434;13.238;2023-05-24T23:47:49;77100.44;;;-142.05;92.95
32330;BME280;18807;52.434;13.238;2023-05-24T23:55:25;77090.25;;;-142.05;93.51
